Time;durP1;ratioP1;P1;durP2;ratioP2;P2;SDS_P1;SDS_P2;PMS_P1;PMS_P2;Temp;Humidity;BMP_temperature;BMP_pressure;BME280_temperature;BME280_humidity;BME280_pressure;Samples;Min_cycle;Max_cycle;Signal;HPM_P1;HPM_P2
2022/03/19 00:00:00;;;;;;;55.53;31.40;;;;;;;16.85;35.85;101761.59;345258;28;1446;-63
2022/03/19 00:00:14;;;;;;;54.55;31.75;;;;;;;16.78;35.93;101760.84;345762;28;1843;-63
2022/03/19 00:00:26;;;;;;;57.42;32.98;;;;;;;16.80;35.95;101758.16;346849;28;1242;-63
2022/03/19 00:00:39;;;;;;;58.88;33.00;;;;;;;16.80;35.64;101754.69;348042;28;986;-63
2022/03/19 00:00:53;;;;;;;55.90;31.98;;;;;;;16.70;35.92;101760.19;346758;28;1818;-63
2022/03/19 00:01:05;;;;;;;56.15;31.80;;;;;;;16.73;35.65;101765.34;345105;28;1436;-64
2022/03/19 00:01:17;;;;;;;57.90;32.30;;;;;;;16.84;35.76;101761.63;344864;28;1241;-64
2022/03/19 00:01:29;;;;;;;55.08;31.52;;;;;;;16.86;35.60;101767.69;345764;28;1399;-64
2022/03/19 00:01:42;;;;;;;55.13;32.45;;;;;;;16.88;35.38;101763.25;344731;28;1286;-64
2022/03/19 00:01:55;;;;;;;58.35;33.28;;;;;;;16.58;35.54;101766.59;344865;28;1798;-64
2022/03/19 00:02:07;;;;;;;59.40;33.28;;;;;;;16.40;36.06;101766.13;347017;28;1744;-64
2022/03/19 00:02:22;;;;;;;58.35;32.92;;;;;;;16.49;36.36;101758.06;347324;28;1026;-64
2022/03/19 00:02:37;;;;;;;56.65;33.15;;;;;;;16.67;36.01;101762.00;346207;28;1269;-64
2022/03/19 00:02:54;;;;;;;59.33;33.47;;;;;;;16.24;36.72;101760.38;346305;28;1911;-64
2022/03/19 00:03:06;;;;;;;59.28;33.10;;;;;;;16.53;36.19;101762.34;347579;28;1760;-64
2022/03/19 00:03:20;;;;;;;56.20;32.08;;;;;;;16.65;36.00;101767.28;347468;28;1225;-64
2022/03/19 00:03:32;;;;;;;55.30;32.03;;;;;;;16.65;36.19;101767.28;347856;28;1047;-64
2022/03/19 00:03:44;;;;;;;54.30;32.15;;;;;;;16.64;36.18;101768.22;347395;28;1418;-64
2022/03/19 00:03:57;;;;;;;55.70;32.75;;;;;;;16.54;36.25;101764.06;346292;28;1865;-64
2022/03/19 00:04:09;;;;;;;57.25;32.90;;;;;;;16.37;36.25;101762.69;345410;28;1470;-65
2022/03/19 00:04:21;;;;;;;58.00;32.10;;;;;;;16.28;36.61;101762.91;346096;28;1378;-64
2022/03/19 00:04:34;;;;;;;56.92;32.08;;;;;;;16.54;36.15;101756.16;346078;28;1675;-64
2022/03/19 00:04:46;;;;;;;55.45;32.13;;;;;;;16.67;36.27;101760.25;346166;28;1260;-64
2022/03/19 00:04:58;;;;;;;55.42;32.30;;;;;;;16.66;36.27;101758.53;346273;28;1056;-64
2022/03/19 00:05:10;;;;;;;56.13;31.98;;;;;;;16.67;36.25;101760.25;346007;28;1346;-64
2022/03/19 00:05:22;;;;;;;56.72;32.08;;;;;;;16.51;36.59;101765.00;345844;28;1410;-64
2022/03/19 00:05:34;;;;;;;54.97;31.55;;;;;;;16.41;36.55;101767.88;346142;28;1285;-64
2022/03/19 00:05:47;;;;;;;55.47;32.00;;;;;;;16.55;36.23;101760.53;345885;28;1071;-64
2022/03/19 00:06:00;;;;;;;56.50;32.75;;;;;;;16.10;36.60;101764.19;347424;28;1415;-64
2022/03/19 00:06:12;;;;;;;58.22;33.40;;;;;;;16.11;37.14;101759.78;345865;28;1514;-64
2022/03/19 00:06:24;;;;;;;58.08;33.45;;;;;;;16.08;36.63;101765.13;346678;28;1696;-64
2022/03/19 00:06:39;;;;;;;55.72;33.15;;;;;;;15.82;37.44;101761.28;347397;28;1054;-64
2022/03/19 00:06:51;;;;;;;58.25;33.58;;;;;;;16.12;37.09;101758.91;347328;28;1349;-65
2022/03/19 00:07:03;;;;;;;59.78;33.47;;;;;;;16.25;36.66;101762.97;346072;28;1095;-64
2022/03/19 00:07:15;;;;;;;61.80;33.58;;;;;;;16.32;36.50;101763.72;346136;28;1287;-64
2022/03/19 00:07:27;;;;;;;59.85;32.63;;;;;;;16.40;36.56;101760.88;348161;28;1207;-64
2022/03/19 00:07:42;;;;;;;56.40;32.25;;;;;;;16.48;36.40;101759.84;348874;28;1070;-64
2022/03/19 00:07:59;;;;;;;55.53;31.90;;;;;;;16.46;36.45;101763.38;349198;28;1051;-64
2022/03/19 00:08:16;;;;;;;55.83;32.47;;;;;;;16.35;36.89;101764.47;346500;28;1807;-64
2022/03/19 00:08:28;;;;;;;55.83;32.38;;;;;;;16.23;36.74;101763.91;347177;28;1659;-64
2022/03/19 00:08:42;;;;;;;56.55;32.22;;;;;;;16.12;37.10;101762.38;347763;28;1122;-64
2022/03/19 00:08:56;;;;;;;57.03;31.90;;;;;;;16.35;36.75;101761.84;347617;28;1681;-64
2022/03/19 00:09:09;;;;;;;57.75;32.45;;;;;;;16.37;36.48;101765.31;348246;28;790;-64
2022/03/19 00:09:21;;;;;;;57.15;33.03;;;;;;;16.45;36.61;101759.03;347446;28;1242;-64
2022/03/19 00:09:33;;;;;;;58.83;33.38;;;;;;;16.07;37.11;101759.00;347333;28;1499;-64
2022/03/19 00:09:45;;;;;;;57.67;32.47;;;;;;;16.42;36.71;101764.34;347686;28;1214;-64
2022/03/19 00:09:57;;;;;;;58.67;32.08;;;;;;;16.40;36.53;101761.78;346772;28;1919;-64
2022/03/19 00:10:10;;;;;;;59.72;31.58;;;;;;;16.52;36.40;101755.34;347546;28;2031;-64
2022/03/19 00:10:22;;;;;;;58.85;31.08;;;;;;;16.49;36.38;101764.16;347553;28;1292;-64
2022/03/19 00:10:34;;;;;;;55.13;31.20;;;;;;;16.43;36.39;101763.47;347928;28;1027;-64
2022/03/19 00:10:47;;;;;;;55.50;31.85;;;;;;;16.31;36.86;101762.81;347611;28;1109;-65
2022/03/19 00:11:00;;;;;;;56.60;31.95;;;;;;;16.31;36.78;101761.97;346666;28;1929;-64
2022/03/19 00:11:12;;;;;;;55.60;31.42;;;;;;;16.40;36.55;101761.78;347501;28;1751;-64
2022/03/19 00:11:24;;;;;;;55.78;31.08;;;;;;;16.17;36.71;101760.50;347456;28;1174;-64
2022/03/19 00:11:37;;;;;;;55.17;30.65;;;;;;;16.00;37.61;101761.78;346217;28;1141;-65
2022/03/19 00:11:49;;;;;;;55.47;31.08;;;;;;;16.19;36.84;101763.09;346487;28;1644;-64
2022/03/19 00:12:01;;;;;;;56.45;31.92;;;;;;;16.15;37.11;101761.44;347145;28;1699;-64
2022/03/19 00:12:14;;;;;;;58.53;32.38;;;;;;;16.29;36.95;101759.38;347482;28;2098;-64
2022/03/19 00:12:27;;;;;;;58.95;32.05;;;;;;;16.25;36.79;101755.09;348020;28;1726;-64
2022/03/19 00:12:39;;;;;;;59.20;31.30;;;;;;;16.22;36.82;101763.06;347466;28;1318;-64
2022/03/19 00:12:51;;;;;;;57.55;31.92;;;;;;;16.37;36.68;101752.19;346830;28;1787;-63
2022/03/19 00:13:04;;;;;;;56.65;32.25;;;;;;;16.53;36.54;101754.47;347120;28;1736;-64
2022/03/19 00:13:20;;;;;;;56.60;32.45;;;;;;;16.60;36.22;101752.53;345964;28;1085;-64
2022/03/19 00:13:36;;;;;;;56.35;31.52;;;;;;;16.66;36.12;101758.53;344680;28;1193;-64
2022/03/19 00:13:48;;;;;;;54.42;31.73;;;;;;;16.73;36.06;101754.84;344471;28;1993;-64
2022/03/19 00:14:01;;;;;;;53.35;31.98;;;;;;;16.80;35.96;101760.78;345354;28;1897;-64
2022/03/19 00:14:14;;;;;;;56.47;32.15;;;;;;;16.86;35.73;101754.56;345630;28;1824;-65
2022/03/19 00:14:26;;;;;;;56.55;32.13;;;;;;;16.86;35.51;101755.44;345217;28;1292;-65
2022/03/19 00:14:38;;;;;;;56.38;31.85;;;;;;;16.88;35.73;101750.13;345603;28;1275;-65
2022/03/19 00:14:51;;;;;;;58.17;32.15;;;;;;;16.82;35.53;101763.41;346058;28;2594;-65
2022/03/19 00:15:04;;;;;;;56.47;31.58;;;;;;;16.72;35.69;101758.38;346077;28;1924;-66
2022/03/19 00:15:16;;;;;;;53.63;31.60;;;;;;;16.73;35.89;101756.63;345992;28;1273;-64
2022/03/19 00:15:28;;;;;;;54.97;31.95;;;;;;;16.76;35.83;101754.78;347130;28;1309;-64
2022/03/19 00:15:41;;;;;;;55.40;31.90;;;;;;;16.64;35.99;101755.09;347357;28;1070;-64
2022/03/19 00:15:53;;;;;;;56.78;31.55;;;;;;;16.16;36.78;101758.81;346198;28;1718;-64
2022/03/19 00:16:05;;;;;;;56.33;31.90;;;;;;;16.35;36.76;101759.22;347278;28;1741;-64
2022/03/19 00:16:18;;;;;;;52.28;32.00;;;;;;;16.25;37.18;101752.47;347253;28;1155;-64
2022/03/19 00:16:30;;;;;;;54.63;31.98;;;;;;;16.38;36.74;101759.19;347224;28;1373;-64
2022/03/19 00:16:42;;;;;;;56.00;32.05;;;;;;;16.49;36.59;101760.69;347131;28;1050;-64
2022/03/19 00:16:54;;;;;;;54.63;31.50;;;;;;;16.37;36.83;101762.69;346972;28;2041;-64
2022/03/19 00:17:07;;;;;;;55.00;31.38;;;;;;;16.33;37.15;101758.41;347262;28;1805;-65
2022/03/19 00:17:18;;;;;;;56.25;32.03;;;;;;;16.14;37.23;101768.47;346320;28;1773;-65
2022/03/19 00:17:31;;;;;;;57.20;32.72;;;;;;;16.33;36.89;101765.44;347565;28;1978;-65
2022/03/19 00:17:43;;;;;;;58.25;32.20;;;;;;;16.16;37.33;101763.19;348050;28;1287;-65
2022/03/19 00:17:57;;;;;;;58.08;32.08;;;;;;;16.26;36.90;101763.81;346821;28;2045;-65
2022/03/19 00:18:09;;;;;;;57.72;31.75;;;;;;;16.29;36.87;101759.38;346795;28;1867;-65
2022/03/19 00:18:21;;;;;;;56.05;31.17;;;;;;;16.27;36.70;101761.16;347578;28;1288;-65
2022/03/19 00:18:34;;;;;;;54.55;31.38;;;;;;;16.37;36.60;101762.69;347337;28;1066;-65
2022/03/19 00:18:49;;;;;;;57.92;32.13;;;;;;;16.34;36.70;101762.78;347509;28;1079;-65
2022/03/19 00:19:03;;;;;;;59.88;32.05;;;;;;;16.43;36.57;101756.44;346218;28;1909;-65
2022/03/19 00:19:15;;;;;;;55.38;31.25;;;;;;;16.46;36.44;101760.75;347253;28;1635;-65
2022/03/19 00:19:29;;;;;;;54.53;31.08;;;;;;;16.57;36.43;101759.59;345855;28;1944;-65
2022/03/19 00:19:42;;;;;;;54.88;31.50;;;;;;;16.64;36.16;101752.47;346527;28;1121;-65
2022/03/19 00:19:54;;;;;;;55.03;31.52;;;;;;;16.63;36.25;101747.22;346418;28;1846;-65
2022/03/19 00:20:06;;;;;;;54.45;31.08;;;;;;;16.14;36.96;101765.00;347178;28;1729;-64
2022/03/19 00:20:18;;;;;;;53.65;30.98;;;;;;;16.20;36.95;101743.84;347124;28;1073;-64
2022/03/19 00:20:31;;;;;;;54.55;31.63;;;;;;;16.03;36.93;101759.94;347254;28;1637;-64
2022/03/19 00:20:43;;;;;;;54.45;31.33;;;;;;;16.32;36.79;101759.31;347175;28;1258;-64
2022/03/19 00:21:06;;;;;;;56.35;31.33;;;;;;;16.30;36.75;101761.13;347215;28;1897;-64
2022/03/19 00:21:19;;;;;;;57.10;31.58;;;;;;;16.56;36.39;101760.50;345519;28;1029;-64
2022/03/19 00:21:31;;;;;;;57.33;31.85;;;;;;;16.40;36.74;101760.88;346126;28;1049;-64
2022/03/19 00:21:44;;;;;;;56.60;31.48;;;;;;;16.60;36.08;101758.69;346146;28;1099;-64
2022/03/19 00:21:57;;;;;;;54.72;31.15;;;;;;;16.72;35.66;101752.25;346200;28;1808;-64
2022/03/19 00:22:10;;;;;;;53.92;31.05;;;;;;;16.70;36.04;101744.44;347465;28;1988;-64
2022/03/19 00:22:22;;;;;;;51.65;30.63;;;;;;;16.81;35.75;101751.16;347744;28;1144;-64
2022/03/19 00:22:36;;;;;;;53.15;30.42;;;;;;;16.41;36.50;101752.13;347637;28;1271;-65
2022/03/19 00:22:48;;;;;;;52.95;31.02;;;;;;;16.25;36.09;101752.47;346248;28;1254;-65
2022/03/19 00:23:01;;;;;;;54.95;32.13;;;;;;;15.75;37.41;101757.03;346473;28;1940;-65
2022/03/19 00:23:14;;;;;;;57.55;31.88;;;;;;;16.01;37.19;101753.03;347746;28;1320;-65
2022/03/19 00:23:26;;;;;;;57.45;30.95;;;;;;;16.25;36.69;101757.72;346958;28;1339;-64
2022/03/19 00:23:38;;;;;;;54.47;30.95;;;;;;;16.38;36.81;101759.19;346771;28;1798;-65
2022/03/19 00:23:52;;;;;;;53.80;31.58;;;;;;;16.52;36.40;101760.59;347363;28;1869;-64
2022/03/19 00:24:05;;;;;;;55.00;32.20;;;;;;;16.58;36.14;101747.34;347190;28;1786;-64
2022/03/19 00:24:21;;;;;;;53.47;31.95;;;;;;;16.31;36.47;101757.56;347575;28;1171;-64
2022/03/19 00:24:35;;;;;;;55.38;32.13;;;;;;;16.49;36.32;101745.78;347620;28;1320;-64
2022/03/19 00:24:47;;;;;;;58.28;32.13;;;;;;;16.50;36.37;101751.91;347483;28;1094;-64
2022/03/19 00:25:00;;;;;;;58.88;31.92;;;;;;;16.63;36.13;101750.72;346294;28;1994;-64
2022/03/19 00:25:12;;;;;;;54.80;31.30;;;;;;;16.63;35.97;101742.84;345891;28;1562;-64
2022/03/19 00:25:24;;;;;;;53.15;30.23;;;;;;;16.53;36.15;101749.22;346255;28;1243;-64
2022/03/19 00:25:37;;;;;;;52.72;30.05;;;;;;;16.37;36.43;101748.72;346054;28;1651;-64
2022/03/19 00:25:49;;;;;;;54.05;30.88;;;;;;;16.21;36.85;101747.34;346298;28;1086;-65
2022/03/19 00:26:01;;;;;;;53.05;30.73;;;;;;;16.25;36.75;101752.47;346083;28;1575;-64
2022/03/19 00:26:14;;;;;;;53.70;31.25;;;;;;;16.18;36.95;101756.16;345983;28;2042;-64
2022/03/19 00:26:28;;;;;;;54.88;31.88;;;;;;;16.33;36.78;101750.53;346026;28;1373;-64
2022/03/19 00:26:40;;;;;;;53.42;31.08;;;;;;;16.40;36.62;101747.75;346316;28;1073;-64
2022/03/19 00:26:52;;;;;;;51.53;30.70;;;;;;;16.46;36.60;101750.25;346035;28;1713;-64
2022/03/19 00:27:04;;;;;;;51.15;30.42;;;;;;;16.50;36.59;101749.28;345527;28;1543;-64
2022/03/19 00:27:16;;;;;;;53.50;30.85;;;;;;;16.37;36.73;101752.19;345081;28;1892;-64
2022/03/19 00:27:28;;;;;;;53.70;30.92;;;;;;;16.52;36.46;101755.34;346505;28;1288;-64
2022/03/19 00:27:41;;;;;;;55.33;31.40;;;;;;;16.64;36.39;101749.84;344755;28;1220;-64
2022/03/19 00:27:53;;;;;;;56.60;31.98;;;;;;;16.59;36.32;101751.69;344502;28;1796;-64
2022/03/19 00:28:05;;;;;;;56.30;32.22;;;;;;;16.70;36.04;101752.31;345381;28;1879;-65
2022/03/19 00:28:18;;;;;;;52.42;31.42;;;;;;;16.48;36.18;101753.69;345983;28;1083;-65
2022/03/19 00:28:30;;;;;;;51.95;30.55;;;;;;;16.40;36.45;101750.38;345907;28;1340;-65
2022/03/19 00:28:43;;;;;;;51.13;30.05;;;;;;;16.51;36.36;101748.38;346225;28;1217;-65
2022/03/19 00:28:55;;;;;;;51.60;30.23;;;;;;;16.49;36.32;101750.19;345254;28;1823;-65
2022/03/19 00:29:08;;;;;;;53.67;30.20;;;;;;;16.31;36.43;101756.72;344736;28;1795;-65
2022/03/19 00:29:20;;;;;;;52.92;29.85;;;;;;;16.50;36.21;101751.91;346209;28;1015;-66
2022/03/19 00:29:41;;;;;;;52.67;29.92;;;;;;;16.50;36.33;101749.28;346054;28;1221;-65
2022/03/19 00:29:53;;;;;;;55.20;30.77;;;;;;;16.48;36.48;101745.81;346536;28;1555;-65
2022/03/19 00:30:05;;;;;;;53.80;30.88;;;;;;;16.19;36.96;101752.63;347014;28;1933;-65
2022/03/19 00:30:18;;;;;;;52.45;30.88;;;;;;;16.31;36.82;101756.72;347789;28;1039;-65
2022/03/19 00:30:30;;;;;;;54.95;31.20;;;;;;;16.42;36.60;101752.09;347466;28;1284;-65
2022/03/19 00:30:42;;;;;;;54.83;30.52;;;;;;;16.30;36.96;101755.88;346176;28;1017;-65
2022/03/19 00:30:54;;;;;;;54.00;30.50;;;;;;;16.30;36.69;101749.75;346156;28;1788;-65
2022/03/19 00:31:07;;;;;;;53.70;30.52;;;;;;;16.51;36.27;101751.00;347404;28;1643;-65
2022/03/19 00:31:19;;;;;;;54.33;30.98;;;;;;;16.40;36.65;101737.25;346103;28;1302;-65
2022/03/19 00:31:31;;;;;;;54.20;30.92;;;;;;;16.32;36.03;101748.81;347645;28;1141;-65
2022/03/19 00:31:43;;;;;;;54.95;30.85;;;;;;;16.46;36.15;101750.25;346939;28;1591;-65
2022/03/19 00:31:56;;;;;;;56.25;31.27;;;;;;;16.42;35.82;101749.47;347394;28;1848;-65
2022/03/19 00:32:08;;;;;;;57.13;31.38;;;;;;;16.28;36.39;101749.78;347253;28;1768;-65
2022/03/19 00:32:20;;;;;;;59.13;31.70;;;;;;;16.28;36.53;101749.78;347492;28;1290;-65
2022/03/19 00:32:33;;;;;;;55.50;31.30;;;;;;;16.08;37.37;101754.63;346351;28;1156;-65
2022/03/19 00:32:45;;;;;;;55.72;31.13;;;;;;;16.00;37.31;101754.78;346434;28;1043;-65
2022/03/19 00:32:57;;;;;;;57.15;30.83;;;;;;;16.09;36.95;101749.31;346241;28;1841;-65
2022/03/19 00:33:09;;;;;;;57.03;30.73;;;;;;;16.07;36.63;101750.25;346479;28;1895;-65
2022/03/19 00:33:21;;;;;;;54.72;30.90;;;;;;;15.98;37.07;101748.72;347493;28;1662;-65
2022/03/19 00:33:33;;;;;;;55.35;31.42;;;;;;;16.05;37.13;101752.91;346009;28;1737;-65
2022/03/19 00:33:45;;;;;;;55.60;31.10;;;;;;;15.80;37.55;101749.97;347633;28;1353;-65
2022/03/19 00:33:57;;;;;;;54.38;30.70;;;;;;;15.67;37.31;101748.44;346484;28;1607;-64
2022/03/19 00:34:09;;;;;;;53.85;30.60;;;;;;;15.71;37.19;101755.34;346839;28;1922;-64
2022/03/19 00:34:21;;;;;;;52.35;30.20;;;;;;;15.65;37.80;101752.84;347368;28;1338;-64
2022/03/19 00:34:35;;;;;;;54.60;30.63;;;;;;;15.61;38.28;101748.56;347516;28;1086;-65
2022/03/19 00:34:47;;;;;;;55.50;31.08;;;;;;;15.58;37.99;101755.59;345866;28;1195;-65
2022/03/19 00:35:01;;;;;;;54.42;31.67;;;;;;;15.63;37.99;101747.63;345119;28;1837;-65
2022/03/19 00:35:16;;;;;;;57.40;32.00;;;;;;;15.53;38.28;101756.56;346041;28;1074;-65
2022/03/19 00:35:28;;;;;;;56.22;31.77;;;;;;;15.82;37.88;101749.94;346045;28;1278;-65
2022/03/19 00:35:41;;;;;;;54.78;31.45;;;;;;;15.87;37.66;101756.78;345397;28;2020;-65
2022/03/19 00:35:53;;;;;;;53.75;30.48;;;;;;;15.92;37.41;101749.69;345389;28;1737;-65
2022/03/19 00:36:05;;;;;;;52.67;30.35;;;;;;;15.82;37.66;101747.31;345796;28;1678;-65
2022/03/19 00:36:17;;;;;;;52.47;31.00;;;;;;;15.73;37.90;101753.59;346099;28;1942;-64
2022/03/19 00:36:30;;;;;;;56.17;31.55;;;;;;;15.82;37.72;101753.41;345837;28;1263;-64
2022/03/19 00:36:42;;;;;;;55.25;31.05;;;;;;;15.89;37.82;101747.13;346181;28;1070;-65
2022/03/19 00:36:56;;;;;;;53.90;30.45;;;;;;;16.00;37.40;101753.91;347102;28;2061;-64
2022/03/19 00:37:08;;;;;;;51.63;30.40;;;;;;;16.11;36.88;101749.28;346612;28;1826;-64
2022/03/19 00:37:20;;;;;;;53.33;30.83;;;;;;;16.02;36.84;101759.97;347427;28;1525;-65
2022/03/19 00:37:32;;;;;;;55.35;30.90;;;;;;;16.19;36.55;101752.63;345939;28;1249;-65
2022/03/19 00:37:46;;;;;;;55.30;30.55;;;;;;;15.93;37.37;101756.66;346114;28;1010;-65
2022/03/19 00:37:59;;;;;;;53.90;30.92;;;;;;;15.96;37.17;101748.75;346191;28;1847;-65
2022/03/19 00:38:11;;;;;;;57.60;31.50;;;;;;;15.82;37.53;101748.16;347204;28;1449;-64
2022/03/19 00:38:23;;;;;;;57.75;31.13;;;;;;;15.93;37.37;101746.16;348049;28;1319;-64
2022/03/19 00:38:35;;;;;;;56.47;30.92;;;;;;;16.05;37.37;101749.44;348994;28;1109;-64
2022/03/19 00:38:48;;;;;;;53.40;30.67;;;;;;;16.08;36.82;101749.38;348990;28;1019;-64
2022/03/19 00:39:00;;;;;;;55.05;31.08;;;;;;;15.91;37.41;101745.34;346969;28;1927;-64
2022/03/19 00:39:12;;;;;;;56.33;31.10;;;;;;;15.85;37.57;101748.09;347363;28;2008;-64
2022/03/19 00:39:24;;;;;;;54.05;30.63;;;;;;;16.03;37.33;101751.22;347509;28;1215;-64
2022/03/19 00:39:37;;;;;;;53.28;29.92;;;;;;;16.06;37.28;101751.19;347386;28;1270;-65
2022/03/19 00:39:50;;;;;;;54.05;30.50;;;;;;;16.10;37.21;101747.59;347818;28;1023;-63
2022/03/19 00:40:04;;;;;;;54.58;31.15;;;;;;;16.13;37.24;101747.50;346123;28;1831;-65
2022/03/19 00:40:20;;;;;;;56.20;31.70;;;;;;;16.29;36.91;101738.38;347345;28;1589;-65
2022/03/19 00:40:33;;;;;;;56.40;31.67;;;;;;;16.28;37.20;101749.78;346689;28;1494;-64
2022/03/19 00:40:46;;;;;;;56.22;31.00;;;;;;;16.34;36.72;101741.78;347446;28;1719;-64
2022/03/19 00:40:58;;;;;;;56.78;31.52;;;;;;;16.27;36.71;101744.56;346818;28;1888;-64
2022/03/19 00:41:10;;;;;;;54.35;31.70;;;;;;;16.43;36.52;101739.84;348007;28;1647;-65
2022/03/19 00:41:22;;;;;;;53.42;30.85;;;;;;;16.33;36.53;101740.03;347391;28;1323;-65
2022/03/19 00:41:34;;;;;;;51.78;29.95;;;;;;;16.22;37.01;101746.44;347289;28;1047;-65
2022/03/19 00:41:46;;;;;;;55.00;30.50;;;;;;;16.35;36.67;101747.88;346164;28;1115;-65
2022/03/19 00:41:58;;;;;;;55.38;30.58;;;;;;;16.19;37.06;101752.63;345054;28;1735;-64
2022/03/19 00:42:10;;;;;;;53.50;30.00;;;;;;;16.28;36.83;101752.41;345720;28;1124;-64
2022/03/19 00:42:22;;;;;;;51.60;29.65;;;;;;;15.90;37.51;101748.00;345872;28;1311;-65
2022/03/19 00:42:34;;;;;;;50.30;29.42;;;;;;;16.09;37.06;101745.84;345373;28;1822;-65
2022/03/19 00:42:48;;;;;;;51.95;29.25;;;;;;;16.16;37.15;101739.56;346132;28;1265;-65
2022/03/19 00:43:01;;;;;;;54.03;30.02;;;;;;;16.31;36.76;101747.09;344989;28;1859;-65
2022/03/19 00:43:13;;;;;;;54.10;30.40;;;;;;;16.41;36.49;101737.25;346741;28;1137;-65
2022/03/19 00:43:25;;;;;;;52.53;30.75;;;;;;;16.48;36.34;101737.94;345738;28;1494;-65
2022/03/19 00:43:38;;;;;;;53.22;30.35;;;;;;;16.49;36.24;101742.31;345969;28;1047;-65
2022/03/19 00:43:50;;;;;;;53.35;30.27;;;;;;;16.28;36.50;101736.66;346318;28;1357;-65
2022/03/19 00:44:02;;;;;;;53.88;29.70;;;;;;;16.43;36.38;101745.09;345959;28;3153;-65
2022/03/19 00:44:14;;;;;;;51.08;29.20;;;;;;;16.38;36.72;101747.81;346636;28;1535;-65
2022/03/19 00:44:26;;;;;;;51.03;29.63;;;;;;;16.27;36.90;101742.81;348024;28;1257;-65
2022/03/19 00:44:38;;;;;;;52.78;30.13;;;;;;;16.02;37.27;101742.50;347186;28;1225;-65
2022/03/19 00:44:50;;;;;;;52.47;30.15;;;;;;;16.09;37.47;101740.59;347408;28;1013;-65
2022/03/19 00:45:03;;;;;;;53.78;30.25;;;;;;;16.12;37.24;101745.78;346943;28;2283;-64
2022/03/19 00:45:18;;;;;;;55.38;30.80;;;;;;;16.21;37.11;101744.72;346266;28;1891;-65
2022/03/19 00:45:30;;;;;;;54.35;30.85;;;;;;;15.93;37.51;101733.06;347447;28;1756;-65
2022/03/19 00:45:42;;;;;;;53.53;31.05;;;;;;;15.98;37.84;101739.06;347220;28;1249;-65
2022/03/19 00:45:54;;;;;;;54.58;31.05;;;;;;;15.60;38.86;101741.63;345314;28;1872;-65
2022/03/19 00:46:07;;;;;;;52.78;30.50;;;;;;;15.58;38.52;101745.13;345075;28;1601;-65
2022/03/19 00:46:20;;;;;;;56.17;31.15;;;;;;;15.66;38.41;101744.97;344187;28;1534;-64
2022/03/19 00:46:32;;;;;;;57.72;31.55;;;;;;;15.75;38.11;101746.56;343937;28;1594;-65
2022/03/19 00:46:44;;;;;;;55.97;31.67;;;;;;;15.89;38.02;101744.50;344757;28;1325;-65
2022/03/19 00:46:56;;;;;;;54.83;31.50;;;;;;;15.86;38.15;101744.59;344004;28;1906;-65
2022/03/19 00:47:08;;;;;;;54.67;30.67;;;;;;;15.88;37.76;101741.94;344492;28;1610;-65
2022/03/19 00:47:23;;;;;;;57.05;30.52;;;;;;;15.73;38.33;101745.72;344734;28;1243;-65
2022/03/19 00:47:35;;;;;;;55.97;31.10;;;;;;;16.01;38.13;101748.63;344598;28;1047;-65
2022/03/19 00:47:47;;;;;;;56.83;31.05;;;;;;;15.82;37.72;101747.31;344495;28;1055;-65
2022/03/19 00:47:59;;;;;;;55.72;30.90;;;;;;;15.75;38.12;101746.56;344513;28;1822;-65
2022/03/19 00:48:11;;;;;;;54.63;30.83;;;;;;;15.85;38.09;101737.59;345916;28;1811;-65
2022/03/19 00:48:23;;;;;;;51.38;29.42;;;;;;;15.86;37.68;101744.59;346770;28;1446;-65
2022/03/19 00:48:35;;;;;;;52.35;28.98;;;;;;;15.92;37.85;101744.47;347379;28;1155;-65
2022/03/19 00:48:48;;;;;;;52.78;29.15;;;;;;;15.98;37.56;101749.56;347616;28;1083;-65
2022/03/19 00:49:00;;;;;;;51.72;29.95;;;;;;;15.96;37.71;101742.63;346573;28;2252;-64
2022/03/19 00:49:12;;;;;;;52.92;30.42;;;;;;;16.00;37.79;101746.03;347457;28;1902;-64
2022/03/19 00:49:24;;;;;;;53.35;30.02;;;;;;;16.11;37.56;101746.69;345877;28;1327;-64
2022/03/19 00:49:36;;;;;;;54.63;30.35;;;;;;;15.93;37.59;101745.31;346143;28;1512;-65
2022/03/19 00:49:48;;;;;;;52.88;29.92;;;;;;;16.01;37.72;101753.03;346325;28;1273;-64
2022/03/19 00:50:01;;;;;;;54.20;30.35;;;;;;;16.04;37.46;101743.34;345425;28;1812;-64
2022/03/19 00:50:13;;;;;;;55.97;30.58;;;;;;;15.89;37.68;101744.50;345406;28;1783;-64
2022/03/19 00:50:25;;;;;;;55.45;30.52;;;;;;;15.90;37.71;101748.88;346056;28;1468;-64
2022/03/19 00:50:40;;;;;;;55.63;30.88;;;;;;;15.83;37.36;101744.63;345789;28;1162;-64
2022/03/19 00:50:52;;;;;;;54.28;31.17;;;;;;;15.97;37.76;101747.81;346001;28;1071;-65
2022/03/19 00:51:05;;;;;;;54.90;30.70;;;;;;;15.96;37.55;101743.50;344821;28;1530;-64
2022/03/19 00:51:17;;;;;;;55.70;30.63;;;;;;;15.90;37.58;101741.00;344299;28;1255;-63
2022/03/19 00:51:31;;;;;;;54.95;30.42;;;;;;;15.69;38.08;101746.66;346511;28;1309;-64
2022/03/19 00:51:43;;;;;;;56.22;31.10;;;;;;;15.91;37.57;101747.09;348376;28;806;-63
2022/03/19 00:51:55;;;;;;;57.13;31.17;;;;;;;15.88;37.89;101742.78;346158;28;1679;-64
2022/03/19 00:52:07;;;;;;;56.22;30.95;;;;;;;16.04;37.55;101742.47;345582;28;1757;-64
2022/03/19 00:52:20;;;;;;;55.10;30.30;;;;;;;15.90;37.82;101743.63;346088;28;1109;-63
2022/03/19 00:52:33;;;;;;;54.10;30.10;;;;;;;16.04;37.40;101747.72;343428;28;1096;-63
2022/03/19 00:52:45;;;;;;;51.63;29.65;;;;;;;16.11;37.29;101751.91;343614;28;1381;-64
2022/03/19 00:52:57;;;;;;;50.88;29.02;;;;;;;16.01;37.45;101747.78;342867;28;1913;-64
2022/03/19 00:53:09;;;;;;;50.53;28.98;;;;;;;15.89;37.66;101744.50;344844;28;1532;-63
2022/03/19 00:53:21;;;;;;;51.28;29.10;;;;;;;15.96;37.58;101746.13;346442;28;1369;-63
2022/03/19 00:53:35;;;;;;;50.38;29.35;;;;;;;15.95;37.38;101744.38;345852;28;1214;-64
2022/03/19 00:53:47;;;;;;;52.25;29.05;;;;;;;15.87;37.72;101745.44;346270;28;1278;-64
2022/03/19 00:53:59;;;;;;;54.05;29.10;;;;;;;16.06;37.31;101741.53;345433;28;2523;-64
2022/03/19 00:54:12;;;;;;;52.40;29.35;;;;;;;15.98;37.49;101749.56;346313;28;1823;-64
2022/03/19 00:54:24;;;;;;;51.42;28.83;;;;;;;15.89;37.74;101744.50;347023;28;1534;-64
2022/03/19 00:54:37;;;;;;;51.33;28.98;;;;;;;16.00;37.38;101746.03;347590;28;1723;-64
2022/03/19 00:54:49;;;;;;;53.60;29.05;;;;;;;15.79;37.75;101745.59;347652;28;1091;-64
2022/03/19 00:55:03;;;;;;;54.72;29.58;;;;;;;15.79;37.81;101742.97;346465;28;1605;-63
2022/03/19 00:55:15;;;;;;;52.03;29.05;;;;;;;15.60;38.06;101741.63;347925;28;1897;-63
2022/03/19 00:55:27;;;;;;;53.72;29.58;;;;;;;15.51;38.36;101750.50;347232;28;1380;-63
2022/03/19 00:55:39;;;;;;;53.25;30.40;;;;;;;15.75;38.06;101741.31;347637;28;1138;-63
2022/03/19 00:55:53;;;;;;;52.30;30.65;;;;;;;15.75;38.06;101746.56;347567;28;1172;-63
2022/03/19 00:56:05;;;;;;;52.63;30.05;;;;;;;15.83;37.78;101752.50;348040;28;1678;-64
2022/03/19 00:56:17;;;;;;;51.50;30.08;;;;;;;15.90;37.79;101746.25;347348;28;945;-63
2022/03/19 00:56:29;;;;;;;50.08;29.35;;;;;;;16.07;37.31;101737.16;347405;28;1302;-63
2022/03/19 00:56:42;;;;;;;53.05;29.92;;;;;;;15.87;37.56;101741.06;347561;28;1165;-64
2022/03/19 00:56:54;;;;;;;51.58;29.10;;;;;;;15.87;37.65;101741.06;347121;28;1728;-63
2022/03/19 00:57:06;;;;;;;54.10;29.80;;;;;;;15.86;37.74;101744.59;347352;28;1767;-63
2022/03/19 00:57:18;;;;;;;53.33;29.85;;;;;;;16.00;37.40;101735.53;346833;28;1743;-63
2022/03/19 00:57:41;;;;;;;51.80;29.55;;;;;;;16.03;37.26;101745.97;347184;28;1651;-64
2022/03/19 00:57:53;;;;;;;48.83;29.05;;;;;;;15.95;37.66;101739.13;347211;28;1083;-64
2022/03/19 00:58:05;;;;;;;50.53;28.92;;;;;;;15.79;37.54;101748.22;347547;28;1182;-63
2022/03/19 00:58:17;;;;;;;51.35;28.83;;;;;;;15.77;37.88;101744.75;347037;28;1169;-63
2022/03/19 00:58:30;;;;;;;51.22;28.67;;;;;;;15.79;37.68;101748.22;347274;28;1285;-63
2022/03/19 00:58:42;;;;;;;51.50;28.50;;;;;;;15.48;38.78;101748.81;347884;28;1065;-63
2022/03/19 00:58:55;;;;;;;52.35;29.05;;;;;;;15.61;38.31;101743.31;347435;28;1907;-64